Overview Statistics Trail Chart Weather Telemetry Raw packets
 

This is the latest recevied weather packets stored in our database for station/object KL7AF. If no packets are shown the sender has not sent any weather packets the latest 10 day(s).

<< 20 21 22 23 24 25 26 >>
Time Temp. Humidity Pressure Rain* Wind** Luminosity Snow
1788475481 36.11° C 52% 1075 hPa 0 mm - 29 W/m² -
1788475180 36.11° C 54% 1075 hPa 0 mm - 31 W/m² -
1788474879 36.11° C 51% 1074.9 hPa 0 mm - 38 W/m² -
1788474579 36.11° C 54% 1074.9 hPa 0 mm - 33 W/m² -
1788474278 36.11° C 53% 1074.9 hPa 0 mm - 39 W/m² -
1788473978 36.11° C 52% 1074.9 hPa 0 mm - 37 W/m² -
1788473678 36.11° C 54% 1074.9 hPa 0 mm - 41 W/m² -
1788473377 35.56° C 53% 1075 hPa 0 mm - 40 W/m² -
1788473077 35.56° C 52% 1075.1 hPa 0 mm - 44 W/m² -
1788472776 35° C 52% 1075.1 hPa 0 mm - 54 W/m² -
1788472475 35° C 53% 1075.1 hPa 0 mm - 64 W/m² -
1788472174 34.44° C 57% 1075.3 hPa 0 mm - 49 W/m² -
1788471873 34.44° C 56% 1075.3 hPa 0 mm - 40 W/m² -
1788471573 35° C 54% 1075.2 hPa 0 mm - 39 W/m² -
1788471273 35.56° C 54% 1075.1 hPa 0 mm - 35 W/m² -
1788470972 35.56° C 55% 1075.1 hPa 0 mm - 49 W/m² -
1788470671 36.67° C 53% 1075 hPa 0 mm - 47 W/m² -
1788470370 37.22° C 52% 1074.8 hPa 0 mm - 36 W/m² -
1788470070 37.78° C 51% 1074.7 hPa 0 mm - 49 W/m² -
1788469769 37.78° C 49% 1074.7 hPa 0 mm - 62 W/m² -
1788469469 37.78° C 48% 1074.7 hPa 0 mm - 253 W/m² -
1788469168 37.78° C 47% 1074.7 hPa 0 mm - 77 W/m² -
1788468868 37.78° C 49% 1074.7 hPa 0 mm - 108 W/m² -
1788468568 37.78° C 49% 1074.8 hPa 0 mm - 97 W/m² -
1788468267 37.78° C 47% 1074.8 hPa 0 mm - 101 W/m² -

* Rain latest hour (hover to see other rain measurements)
** Current wind speed in m/s (hover to see current wind gust speed)